Cincinnati, OH

12:08 PM EDT on October 22, 2014 (GMT -0400)
Summerside | Change Station
CLOSE
Current Station
Personal Weather Station
Location: Mt. Carmel, OH
Elevation: 833 ft
Nearby Weather Stations

Elev 833 ft 39.12 °N, 84.29 °W | Updated 5 seconds ago

Overcast
Overcast
52.9 °F
Feels Like 52.9 °F
N
0.0
Wind Variable Wind from NNW
Gusts 0.0 mph

Today
High -- | Low -- °F
--% Chance of Precip.
Yesterday
High -- | Low -- °F
Precip. -- in
7:54 AM 6:48 PM
Waning Crescent, 2% visible
Pressure 30.32 in
Visibility 10.0 miles
Clouds Few 2800 ft
Overcast 3600 ft
Dew Point 46 °F
Humidity 77%
Rainfall 0.00 in
Snow Depth Not available.
UV 2.0 out of 12
Pollen 1.40 out of 12
Ozone Good
PM2.5 Good
Flu Activity Sporadic
METAR KLUK 221553Z 33009KT 10SM FEW028 OVC036 11/05 A3031 RMK AO2 SLP265 T01110050

More Conditions Fewer Conditions

Pressure 30.32 in
Visibility 10.0 miles
Clouds Few 2800 ft
Overcast 3600 ft
Dew Point 46 °F
Humidity 77%
Rainfall 0.00 in
Snow Depth Not available.
UV 2.0 out of 12
Pollen 1.40 out of 12
Ozone Good
PM2.5 Good
Flu Activity Sporadic
METAR KLUK 221553Z 33009KT 10SM FEW028 OVC036 11/05 A3031 RMK AO2 SLP265 T01110050

More Conditions Fewer Conditions

10-Day Weather Forecast

Almanac

Astronomy

Oct. 22, 2014 Rise Set
Actual Time 7:54 AM EDT 6:48 PM EDT
Civil Twilight 7:26 AM EDT 7:15 PM EDT
Nautical Twilight 6:55 AM EDT 7:47 PM EDT
Astronomical Twilight 6:24 AM EDT 8:18 PM EDT
Moon 6:35 AM EDT 6:14 PM EDT
Length of Visible Light 11h 49m
Length of Day
10h 54m
Tomorrow will be 2m 23s shorter.
Waning Crescent, 2% of the Moon is Illuminated
Today
Waning Crescent
Oct 23
New
Oct 30
First Quarter
Nov 6
Full
Nov 14
Last Quarter

Today's Extremes

State Highs State Lows

Community

WunderPhotos

Upload Photos

1,763,956 photos uploaded!

Nearby

Air Quality

  Air Quality AQ Index Pollutant
Yesterday Good
PM10
Yesterday Good
OZONE
Current Good
PM2.5
Current Good
OZONE
Wednesday Good
PM2.5
Wednesday Good
OZONE

Snow Depth

Station Depth Elevation
No new snow has been reported.

Earthquake Activity

City Distance Mag. Time & Date
No recent earthquake activity has been reported nearby.
Minimum magnitude displayed is 2.5.

Coastal Water Temperatures

Place Temperature
No Stations Reporting

Nearby Weather Stations